sensor_id;sensor_type;location;lat;lon;timestamp;P1;durP1;ratioP1;P2;durP2;ratioP2
18853;SDS011;9556;49.374;19.446;2023-06-14T00:00:33;2.65;;;1.92;;
18853;SDS011;9556;49.374;19.446;2023-06-14T00:03:00;4.70;;;1.80;;
18853;SDS011;9556;49.374;19.446;2023-06-14T00:05:28;2.90;;;2.10;;
18853;SDS011;9556;49.374;19.446;2023-06-14T00:07:58;2.58;;;1.92;;
18853;SDS011;9556;49.374;19.446;2023-06-14T00:10:26;2.40;;;1.90;;
18853;SDS011;9556;49.374;19.446;2023-06-14T00:12:56;3.53;;;2.05;;
18853;SDS011;9556;49.374;19.446;2023-06-14T00:15:24;3.33;;;1.80;;
18853;SDS011;9556;49.374;19.446;2023-06-14T00:17:53;2.15;;;1.60;;
18853;SDS011;9556;49.374;19.446;2023-06-14T00:20:21;1.90;;;1.63;;
18853;SDS011;9556;49.374;19.446;2023-06-14T00:22:48;2.90;;;2.08;;
18853;SDS011;9556;49.374;19.446;2023-06-14T00:25:17;3.22;;;1.83;;
18853;SDS011;9556;49.374;19.446;2023-06-14T00:27:44;3.00;;;1.83;;
18853;SDS011;9556;49.374;19.446;2023-06-14T00:30:11;2.97;;;1.90;;
18853;SDS011;9556;49.374;19.446;2023-06-14T00:32:39;2.83;;;1.90;;
18853;SDS011;9556;49.374;19.446;2023-06-14T00:35:09;2.67;;;2.00;;
18853;SDS011;9556;49.374;19.446;2023-06-14T00:37:36;2.88;;;2.10;;
18853;SDS011;9556;49.374;19.446;2023-06-14T00:40:04;2.97;;;2.03;;
18853;SDS011;9556;49.374;19.446;2023-06-14T00:42:32;2.88;;;1.70;;
18853;SDS011;9556;49.374;19.446;2023-06-14T00:44:59;2.97;;;1.77;;
18853;SDS011;9556;49.374;19.446;2023-06-14T00:47:26;3.33;;;1.80;;
18853;SDS011;9556;49.374;19.446;2023-06-14T00:49:54;3.10;;;1.70;;
18853;SDS011;9556;49.374;19.446;2023-06-14T00:52:23;2.70;;;1.80;;
18853;SDS011;9556;49.374;19.446;2023-06-14T00:54:50;3.25;;;1.90;;
18853;SDS011;9556;49.374;19.446;2023-06-14T00:57:17;2.95;;;1.95;;
18853;SDS011;9556;49.374;19.446;2023-06-14T00:59:46;2.58;;;1.88;;
18853;SDS011;9556;49.374;19.446;2023-06-14T01:02:14;2.33;;;1.77;;
18853;SDS011;9556;49.374;19.446;2023-06-14T01:04:42;3.15;;;1.65;;
18853;SDS011;9556;49.374;19.446;2023-06-14T01:07:12;2.45;;;1.83;;
18853;SDS011;9556;49.374;19.446;2023-06-14T01:09:46;2.65;;;1.80;;
18853;SDS011;9556;49.374;19.446;2023-06-14T01:12:15;2.35;;;1.75;;
18853;SDS011;9556;49.374;19.446;2023-06-14T01:14:46;2.60;;;1.85;;
18853;SDS011;9556;49.374;19.446;2023-06-14T01:17:14;2.85;;;1.60;;
18853;SDS011;9556;49.374;19.446;2023-06-14T01:19:42;2.53;;;1.73;;
18853;SDS011;9556;49.374;19.446;2023-06-14T01:22:09;3.05;;;1.65;;
18853;SDS011;9556;49.374;19.446;2023-06-14T01:24:38;2.42;;;1.70;;
18853;SDS011;9556;49.374;19.446;2023-06-14T01:27:09;1.98;;;1.52;;
18853;SDS011;9556;49.374;19.446;2023-06-14T01:29:37;2.58;;;1.70;;
18853;SDS011;9556;49.374;19.446;2023-06-14T01:32:10;2.95;;;1.77;;
18853;SDS011;9556;49.374;19.446;2023-06-14T01:34:38;2.00;;;1.73;;
18853;SDS011;9556;49.374;19.446;2023-06-14T01:37:05;2.45;;;1.70;;
18853;SDS011;9556;49.374;19.446;2023-06-14T01:39:33;3.72;;;1.70;;
18853;SDS011;9556;49.374;19.446;2023-06-14T01:42:02;2.65;;;1.90;;
18853;SDS011;9556;49.374;19.446;2023-06-14T01:44:29;2.17;;;1.73;;
18853;SDS011;9556;49.374;19.446;2023-06-14T01:46:57;4.72;;;1.80;;
18853;SDS011;9556;49.374;19.446;2023-06-14T01:49:24;3.28;;;1.60;;
18853;SDS011;9556;49.374;19.446;2023-06-14T01:51:52;2.60;;;1.70;;
18853;SDS011;9556;49.374;19.446;2023-06-14T01:54:19;2.00;;;1.70;;
18853;SDS011;9556;49.374;19.446;2023-06-14T01:56:47;2.20;;;1.60;;
18853;SDS011;9556;49.374;19.446;2023-06-14T01:59:16;2.83;;;1.83;;
18853;SDS011;9556;49.374;19.446;2023-06-14T02:01:43;2.60;;;1.70;;
18853;SDS011;9556;49.374;19.446;2023-06-14T02:04:11;1.92;;;1.55;;
18853;SDS011;9556;49.374;19.446;2023-06-14T02:06:38;2.45;;;1.75;;
18853;SDS011;9556;49.374;19.446;2023-06-14T02:09:05;2.22;;;1.60;;
18853;SDS011;9556;49.374;19.446;2023-06-14T02:11:32;2.38;;;1.65;;
18853;SDS011;9556;49.374;19.446;2023-06-14T02:13:59;3.08;;;1.80;;
18853;SDS011;9556;49.374;19.446;2023-06-14T02:16:28;3.47;;;1.70;;
18853;SDS011;9556;49.374;19.446;2023-06-14T02:18:55;2.00;;;1.65;;
18853;SDS011;9556;49.374;19.446;2023-06-14T02:21:23;2.20;;;1.77;;
18853;SDS011;9556;49.374;19.446;2023-06-14T02:23:50;2.53;;;1.90;;
18853;SDS011;9556;49.374;19.446;2023-06-14T02:26:17;2.20;;;1.60;;
18853;SDS011;9556;49.374;19.446;2023-06-14T02:28:44;2.83;;;1.95;;
18853;SDS011;9556;49.374;19.446;2023-06-14T02:31:11;2.50;;;1.70;;
18853;SDS011;9556;49.374;19.446;2023-06-14T02:33:40;3.00;;;1.85;;
18853;SDS011;9556;49.374;19.446;2023-06-14T02:36:07;2.85;;;1.83;;
18853;SDS011;9556;49.374;19.446;2023-06-14T02:38:34;2.55;;;1.70;;
18853;SDS011;9556;49.374;19.446;2023-06-14T02:41:01;1.75;;;1.35;;
18853;SDS011;9556;49.374;19.446;2023-06-14T02:43:29;3.00;;;1.58;;
18853;SDS011;9556;49.374;19.446;2023-06-14T02:45:56;1.90;;;1.60;;
18853;SDS011;9556;49.374;19.446;2023-06-14T02:48:23;2.28;;;1.58;;
18853;SDS011;9556;49.374;19.446;2023-06-14T02:50:52;3.38;;;1.77;;
18853;SDS011;9556;49.374;19.446;2023-06-14T02:53:19;2.95;;;1.60;;
18853;SDS011;9556;49.374;19.446;2023-06-14T02:55:46;2.75;;;1.80;;
18853;SDS011;9556;49.374;19.446;2023-06-14T02:58:13;2.63;;;1.70;;
18853;SDS011;9556;49.374;19.446;2023-06-14T03:00:41;3.63;;;1.92;;
18853;SDS011;9556;49.374;19.446;2023-06-14T03:03:08;2.28;;;1.80;;
18853;SDS011;9556;49.374;19.446;2023-06-14T03:05:39;3.72;;;1.95;;
18853;SDS011;9556;49.374;19.446;2023-06-14T03:08:12;2.67;;;1.65;;
18853;SDS011;9556;49.374;19.446;2023-06-14T03:10:42;1.75;;;1.58;;
18853;SDS011;9556;49.374;19.446;2023-06-14T03:13:09;2.78;;;1.65;;
18853;SDS011;9556;49.374;19.446;2023-06-14T03:15:37;2.88;;;1.65;;
18853;SDS011;9556;49.374;19.446;2023-06-14T03:18:06;2.20;;;1.55;;
18853;SDS011;9556;49.374;19.446;2023-06-14T03:20:34;3.15;;;1.50;;
18853;SDS011;9556;49.374;19.446;2023-06-14T03:23:02;2.50;;;1.60;;
18853;SDS011;9556;49.374;19.446;2023-06-14T03:25:32;2.40;;;1.60;;
18853;SDS011;9556;49.374;19.446;2023-06-14T03:28:00;2.25;;;1.30;;
18853;SDS011;9556;49.374;19.446;2023-06-14T03:30:30;2.38;;;1.67;;
18853;SDS011;9556;49.374;19.446;2023-06-14T03:32:57;2.30;;;1.65;;
18853;SDS011;9556;49.374;19.446;2023-06-14T03:35:26;2.75;;;1.63;;
18853;SDS011;9556;49.374;19.446;2023-06-14T03:37:53;2.83;;;1.65;;
18853;SDS011;9556;49.374;19.446;2023-06-14T03:40:20;2.63;;;1.70;;
18853;SDS011;9556;49.374;19.446;2023-06-14T03:42:52;2.47;;;1.60;;
18853;SDS011;9556;49.374;19.446;2023-06-14T03:45:19;2.15;;;1.77;;
18853;SDS011;9556;49.374;19.446;2023-06-14T03:47:46;1.83;;;1.50;;
18853;SDS011;9556;49.374;19.446;2023-06-14T03:50:13;1.80;;;1.33;;
18853;SDS011;9556;49.374;19.446;2023-06-14T03:52:41;1.90;;;1.40;;
18853;SDS011;9556;49.374;19.446;2023-06-14T03:55:09;3.53;;;1.60;;
18853;SDS011;9556;49.374;19.446;2023-06-14T03:57:38;2.55;;;1.55;;
18853;SDS011;9556;49.374;19.446;2023-06-14T04:00:08;1.95;;;1.58;;
18853;SDS011;9556;49.374;19.446;2023-06-14T04:02:36;2.25;;;1.50;;
18853;SDS011;9556;49.374;19.446;2023-06-14T04:05:03;2.25;;;1.50;;
18853;SDS011;9556;49.374;19.446;2023-06-14T04:07:33;2.67;;;1.48;;
18853;SDS011;9556;49.374;19.446;2023-06-14T04:10:05;6.85;;;1.80;;
18853;SDS011;9556;49.374;19.446;2023-06-14T04:12:32;1.92;;;1.60;;
18853;SDS011;9556;49.374;19.446;2023-06-14T04:15:00;2.20;;;1.60;;
18853;SDS011;9556;49.374;19.446;2023-06-14T04:17:29;2.20;;;1.50;;
18853;SDS011;9556;49.374;19.446;2023-06-14T04:19:57;2.55;;;1.80;;
18853;SDS011;9556;49.374;19.446;2023-06-14T04:22:25;2.13;;;1.90;;
18853;SDS011;9556;49.374;19.446;2023-06-14T04:24:53;3.00;;;2.30;;
18853;SDS011;9556;49.374;19.446;2023-06-14T04:27:21;3.83;;;2.40;;
18853;SDS011;9556;49.374;19.446;2023-06-14T04:29:50;4.05;;;2.35;;
18853;SDS011;9556;49.374;19.446;2023-06-14T04:32:23;4.10;;;2.40;;
18853;SDS011;9556;49.374;19.446;2023-06-14T04:34:53;3.53;;;2.50;;
18853;SDS011;9556;49.374;19.446;2023-06-14T04:37:20;5.25;;;3.55;;
18853;SDS011;9556;49.374;19.446;2023-06-14T04:39:48;3.60;;;2.40;;
18853;SDS011;9556;49.374;19.446;2023-06-14T04:42:15;14.40;;;2.90;;
18853;SDS011;9556;49.374;19.446;2023-06-14T04:44:45;4.13;;;2.42;;
18853;SDS011;9556;49.374;19.446;2023-06-14T04:47:13;6.22;;;3.25;;
18853;SDS011;9556;49.374;19.446;2023-06-14T04:49:41;4.47;;;2.95;;
18853;SDS011;9556;49.374;19.446;2023-06-14T04:52:11;3.47;;;2.80;;
18853;SDS011;9556;49.374;19.446;2023-06-14T04:54:38;6.50;;;2.70;;
18853;SDS011;9556;49.374;19.446;2023-06-14T04:57:07;7.50;;;2.63;;
18853;SDS011;9556;49.374;19.446;2023-06-14T04:59:38;4.28;;;2.58;;
18853;SDS011;9556;49.374;19.446;2023-06-14T05:02:05;4.40;;;2.53;;
18853;SDS011;9556;49.374;19.446;2023-06-14T05:04:33;8.23;;;2.92;;
18853;SDS011;9556;49.374;19.446;2023-06-14T05:07:05;4.60;;;2.60;;
18853;SDS011;9556;49.374;19.446;2023-06-14T05:09:33;3.22;;;2.28;;
18853;SDS011;9556;49.374;19.446;2023-06-14T05:12:00;5.25;;;2.72;;
18853;SDS011;9556;49.374;19.446;2023-06-14T05:14:27;5.10;;;3.03;;
18853;SDS011;9556;49.374;19.446;2023-06-14T05:16:55;5.25;;;3.17;;
18853;SDS011;9556;49.374;19.446;2023-06-14T05:19:22;3.70;;;2.80;;
18853;SDS011;9556;49.374;19.446;2023-06-14T05:21:49;4.05;;;2.65;;
18853;SDS011;9556;49.374;19.446;2023-06-14T05:24:16;4.18;;;3.15;;
18853;SDS011;9556;49.374;19.446;2023-06-14T05:26:45;4.32;;;2.70;;
18853;SDS011;9556;49.374;19.446;2023-06-14T05:29:12;4.65;;;3.05;;
18853;SDS011;9556;49.374;19.446;2023-06-14T05:31:40;4.72;;;2.33;;
18853;SDS011;9556;49.374;19.446;2023-06-14T05:34:07;4.28;;;2.83;;
18853;SDS011;9556;49.374;19.446;2023-06-14T05:36:34;5.40;;;2.72;;
18853;SDS011;9556;49.374;19.446;2023-06-14T05:39:02;3.88;;;2.80;;
18853;SDS011;9556;49.374;19.446;2023-06-14T05:41:30;4.13;;;3.00;;
18853;SDS011;9556;49.374;19.446;2023-06-14T05:43:59;4.15;;;2.85;;
18853;SDS011;9556;49.374;19.446;2023-06-14T05:46:26;5.32;;;2.63;;
18853;SDS011;9556;49.374;19.446;2023-06-14T05:48:54;3.58;;;2.58;;
18853;SDS011;9556;49.374;19.446;2023-06-14T05:51:21;4.68;;;3.05;;
18853;SDS011;9556;49.374;19.446;2023-06-14T05:53:50;3.47;;;2.42;;
18853;SDS011;9556;49.374;19.446;2023-06-14T05:56:17;3.88;;;2.70;;
18853;SDS011;9556;49.374;19.446;2023-06-14T05:58:44;4.57;;;2.60;;
18853;SDS011;9556;49.374;19.446;2023-06-14T06:01:14;3.58;;;2.85;;
18853;SDS011;9556;49.374;19.446;2023-06-14T06:03:41;4.03;;;2.78;;
18853;SDS011;9556;49.374;19.446;2023-06-14T06:06:10;4.07;;;2.63;;
18853;SDS011;9556;49.374;19.446;2023-06-14T06:08:37;4.53;;;2.75;;
18853;SDS011;9556;49.374;19.446;2023-06-14T06:11:05;4.38;;;2.85;;
18853;SDS011;9556;49.374;19.446;2023-06-14T06:13:32;3.72;;;2.67;;
18853;SDS011;9556;49.374;19.446;2023-06-14T06:16:00;3.42;;;2.58;;
18853;SDS011;9556;49.374;19.446;2023-06-14T06:18:28;3.88;;;2.90;;
18853;SDS011;9556;49.374;19.446;2023-06-14T06:20:55;4.45;;;2.75;;
18853;SDS011;9556;49.374;19.446;2023-06-14T06:23:23;4.63;;;2.75;;
18853;SDS011;9556;49.374;19.446;2023-06-14T06:25:50;3.50;;;2.83;;
18853;SDS011;9556;49.374;19.446;2023-06-14T06:28:17;4.30;;;2.63;;
18853;SDS011;9556;49.374;19.446;2023-06-14T06:30:45;3.97;;;2.75;;
18853;SDS011;9556;49.374;19.446;2023-06-14T06:33:12;3.92;;;2.78;;
18853;SDS011;9556;49.374;19.446;2023-06-14T06:35:41;4.60;;;3.35;;
18853;SDS011;9556;49.374;19.446;2023-06-14T06:38:08;4.30;;;2.58;;
18853;SDS011;9556;49.374;19.446;2023-06-14T06:40:35;5.30;;;3.30;;
18853;SDS011;9556;49.374;19.446;2023-06-14T06:43:03;4.10;;;3.08;;
18853;SDS011;9556;49.374;19.446;2023-06-14T06:45:30;4.00;;;2.67;;
18853;SDS011;9556;49.374;19.446;2023-06-14T06:47:58;3.85;;;2.58;;
18853;SDS011;9556;49.374;19.446;2023-06-14T06:50:25;3.08;;;2.38;;
18853;SDS011;9556;49.374;19.446;2023-06-14T06:52:54;3.15;;;2.40;;
18853;SDS011;9556;49.374;19.446;2023-06-14T06:55:22;3.00;;;2.22;;
18853;SDS011;9556;49.374;19.446;2023-06-14T06:57:49;3.63;;;2.53;;
18853;SDS011;9556;49.374;19.446;2023-06-14T07:00:17;3.90;;;2.78;;
18853;SDS011;9556;49.374;19.446;2023-06-14T07:02:45;5.35;;;2.45;;
18853;SDS011;9556;49.374;19.446;2023-06-14T07:05:12;4.10;;;2.50;;
18853;SDS011;9556;49.374;19.446;2023-06-14T07:07:39;2.60;;;2.10;;
18853;SDS011;9556;49.374;19.446;2023-06-14T07:10:08;3.70;;;2.63;;
18853;SDS011;9556;49.374;19.446;2023-06-14T07:12:35;2.72;;;2.28;;
18853;SDS011;9556;49.374;19.446;2023-06-14T07:15:05;3.20;;;2.50;;
18853;SDS011;9556;49.374;19.446;2023-06-14T07:17:32;3.45;;;2.67;;
18853;SDS011;9556;49.374;19.446;2023-06-14T07:20:00;3.35;;;2.70;;
18853;SDS011;9556;49.374;19.446;2023-06-14T07:22:37;5.68;;;2.80;;
18853;SDS011;9556;49.374;19.446;2023-06-14T07:25:04;5.07;;;2.75;;
18853;SDS011;9556;49.374;19.446;2023-06-14T07:27:33;4.13;;;2.80;;
18853;SDS011;9556;49.374;19.446;2023-06-14T07:30:00;4.03;;;2.40;;
18853;SDS011;9556;49.374;19.446;2023-06-14T07:32:27;3.28;;;2.50;;
18853;SDS011;9556;49.374;19.446;2023-06-14T07:34:54;3.88;;;2.63;;
18853;SDS011;9556;49.374;19.446;2023-06-14T07:37:21;3.10;;;2.33;;
18853;SDS011;9556;49.374;19.446;2023-06-14T07:39:49;5.32;;;3.20;;
18853;SDS011;9556;49.374;19.446;2023-06-14T07:42:16;8.25;;;5.57;;
18853;SDS011;9556;49.374;19.446;2023-06-14T07:44:44;8.45;;;5.70;;
18853;SDS011;9556;49.374;19.446;2023-06-14T07:47:11;7.93;;;5.15;;
18853;SDS011;9556;49.374;19.446;2023-06-14T07:49:38;7.70;;;4.75;;
18853;SDS011;9556;49.374;19.446;2023-06-14T07:52:06;5.25;;;3.55;;
18853;SDS011;9556;49.374;19.446;2023-06-14T07:54:33;5.40;;;3.10;;
18853;SDS011;9556;49.374;19.446;2023-06-14T07:57:01;4.30;;;3.17;;
18853;SDS011;9556;49.374;19.446;2023-06-14T07:59:28;4.97;;;3.53;;
18853;SDS011;9556;49.374;19.446;2023-06-14T08:01:56;5.25;;;2.90;;
18853;SDS011;9556;49.374;19.446;2023-06-14T08:04:23;4.05;;;2.92;;
18853;SDS011;9556;49.374;19.446;2023-06-14T08:06:51;5.72;;;3.00;;
18853;SDS011;9556;49.374;19.446;2023-06-14T08:09:18;4.65;;;2.85;;
18853;SDS011;9556;49.374;19.446;2023-06-14T08:11:46;3.55;;;2.85;;
18853;SDS011;9556;49.374;19.446;2023-06-14T08:14:13;5.43;;;4.05;;
18853;SDS011;9556;49.374;19.446;2023-06-14T08:16:40;7.93;;;6.65;;
18853;SDS011;9556;49.374;19.446;2023-06-14T08:19:09;7.28;;;5.65;;
18853;SDS011;9556;49.374;19.446;2023-06-14T08:21:36;3.67;;;3.03;;
18853;SDS011;9556;49.374;19.446;2023-06-14T08:24:03;7.85;;;5.78;;
18853;SDS011;9556;49.374;19.446;2023-06-14T08:26:31;5.97;;;4.55;;
18853;SDS011;9556;49.374;19.446;2023-06-14T08:28:58;6.70;;;4.63;;
18853;SDS011;9556;49.374;19.446;2023-06-14T08:31:25;3.83;;;3.13;;
18853;SDS011;9556;49.374;19.446;2023-06-14T08:33:52;6.45;;;4.40;;
18853;SDS011;9556;49.374;19.446;2023-06-14T08:36:21;4.60;;;2.83;;
18853;SDS011;9556;49.374;19.446;2023-06-14T08:38:48;7.18;;;4.13;;
18853;SDS011;9556;49.374;19.446;2023-06-14T08:41:20;3.30;;;2.50;;
18853;SDS011;9556;49.374;19.446;2023-06-14T08:43:47;5.63;;;3.53;;
18853;SDS011;9556;49.374;19.446;2023-06-14T08:46:14;3.08;;;2.40;;
18853;SDS011;9556;49.374;19.446;2023-06-14T08:48:45;5.03;;;2.08;;
18853;SDS011;9556;49.374;19.446;2023-06-14T08:51:13;7.65;;;4.63;;
18853;SDS011;9556;49.374;19.446;2023-06-14T08:53:43;5.57;;;2.75;;
18853;SDS011;9556;49.374;19.446;2023-06-14T08:56:10;3.88;;;2.90;;
18853;SDS011;9556;49.374;19.446;2023-06-14T08:58:39;7.40;;;3.55;;
18853;SDS011;9556;49.374;19.446;2023-06-14T09:01:08;8.18;;;4.65;;
18853;SDS011;9556;49.374;19.446;2023-06-14T09:03:37;14.50;;;6.53;;
18853;SDS011;9556;49.374;19.446;2023-06-14T09:06:05;5.90;;;3.10;;
18853;SDS011;9556;49.374;19.446;2023-06-14T09:08:33;5.53;;;3.03;;
18853;SDS011;9556;49.374;19.446;2023-06-14T09:11:02;4.30;;;2.63;;
18853;SDS011;9556;49.374;19.446;2023-06-14T09:13:29;3.80;;;2.25;;
18853;SDS011;9556;49.374;19.446;2023-06-14T09:15:56;3.92;;;2.80;;
18853;SDS011;9556;49.374;19.446;2023-06-14T09:18:26;3.70;;;2.50;;
18853;SDS011;9556;49.374;19.446;2023-06-14T09:21:00;4.25;;;2.45;;
18853;SDS011;9556;49.374;19.446;2023-06-14T09:23:27;3.45;;;2.40;;
18853;SDS011;9556;49.374;19.446;2023-06-14T09:25:54;5.57;;;3.30;;
18853;SDS011;9556;49.374;19.446;2023-06-14T09:28:27;5.00;;;2.60;;
18853;SDS011;9556;49.374;19.446;2023-06-14T09:30:54;3.97;;;2.42;;
18853;SDS011;9556;49.374;19.446;2023-06-14T09:33:22;3.42;;;1.90;;
18853;SDS011;9556;49.374;19.446;2023-06-14T09:35:51;2.30;;;1.80;;
18853;SDS011;9556;49.374;19.446;2023-06-14T09:38:19;3.42;;;2.30;;
18853;SDS011;9556;49.374;19.446;2023-06-14T09:40:46;3.35;;;2.40;;
18853;SDS011;9556;49.374;19.446;2023-06-14T09:43:13;2.40;;;1.80;;
18853;SDS011;9556;49.374;19.446;2023-06-14T09:45:42;4.38;;;3.15;;
18853;SDS011;9556;49.374;19.446;2023-06-14T09:48:11;2.88;;;1.95;;
18853;SDS011;9556;49.374;19.446;2023-06-14T09:50:42;2.75;;;2.08;;
18853;SDS011;9556;49.374;19.446;2023-06-14T09:53:10;4.43;;;3.17;;
18853;SDS011;9556;49.374;19.446;2023-06-14T09:55:37;2.45;;;1.92;;
18853;SDS011;9556;49.374;19.446;2023-06-14T09:58:07;2.20;;;1.85;;
18853;SDS011;9556;49.374;19.446;2023-06-14T10:00:35;2.78;;;2.17;;
18853;SDS011;9556;49.374;19.446;2023-06-14T10:03:05;3.85;;;2.50;;
18853;SDS011;9556;49.374;19.446;2023-06-14T10:05:33;2.33;;;1.77;;
18853;SDS011;9556;49.374;19.446;2023-06-14T10:08:04;2.38;;;1.90;;
18853;SDS011;9556;49.374;19.446;2023-06-14T10:10:31;3.00;;;2.28;;
18853;SDS011;9556;49.374;19.446;2023-06-14T10:12:58;2.28;;;1.75;;
18853;SDS011;9556;49.374;19.446;2023-06-14T10:15:28;2.50;;;1.95;;
18853;SDS011;9556;49.374;19.446;2023-06-14T10:17:59;4.50;;;2.28;;
18853;SDS011;9556;49.374;19.446;2023-06-14T10:20:30;2.30;;;1.75;;
18853;SDS011;9556;49.374;19.446;2023-06-14T10:23:02;2.28;;;1.70;;
18853;SDS011;9556;49.374;19.446;2023-06-14T10:25:31;4.07;;;2.60;;
18853;SDS011;9556;49.374;19.446;2023-06-14T10:31:02;3.55;;;2.75;;
18853;SDS011;9556;49.374;19.446;2023-06-14T10:33:30;2.83;;;2.05;;
18853;SDS011;9556;49.374;19.446;2023-06-14T10:36:24;2.60;;;2.05;;
18853;SDS011;9556;49.374;19.446;2023-06-14T10:38:59;2.33;;;1.85;;
18853;SDS011;9556;49.374;19.446;2023-06-14T10:41:27;2.70;;;2.17;;
18853;SDS011;9556;49.374;19.446;2023-06-14T10:46:37;2.30;;;2.00;;
18853;SDS011;9556;49.374;19.446;2023-06-14T10:49:05;3.67;;;2.00;;
18853;SDS011;9556;49.374;19.446;2023-06-14T10:51:42;2.22;;;1.90;;
18853;SDS011;9556;49.374;19.446;2023-06-14T10:54:11;2.80;;;1.85;;
18853;SDS011;9556;49.374;19.446;2023-06-14T10:56:39;1.90;;;1.70;;
18853;SDS011;9556;49.374;19.446;2023-06-14T10:59:12;9.20;;;6.13;;
18853;SDS011;9556;49.374;19.446;2023-06-14T11:01:41;4.80;;;2.90;;
18853;SDS011;9556;49.374;19.446;2023-06-14T11:04:08;2.38;;;2.10;;
18853;SDS011;9556;49.374;19.446;2023-06-14T11:06:46;8.52;;;6.97;;
18853;SDS011;9556;49.374;19.446;2023-06-14T11:11:57;3.05;;;2.17;;
18853;SDS011;9556;49.374;19.446;2023-06-14T11:14:25;2.38;;;1.80;;
18853;SDS011;9556;49.374;19.446;2023-06-14T11:16:52;3.00;;;1.88;;
18853;SDS011;9556;49.374;19.446;2023-06-14T11:19:19;2.17;;;1.60;;
18853;SDS011;9556;49.374;19.446;2023-06-14T11:21:49;2.05;;;1.70;;
18853;SDS011;9556;49.374;19.446;2023-06-14T11:24:16;2.00;;;1.60;;
18853;SDS011;9556;49.374;19.446;2023-06-14T11:26:44;2.20;;;1.55;;
18853;SDS011;9556;49.374;19.446;2023-06-14T11:29:11;1.85;;;1.48;;
18853;SDS011;9556;49.374;19.446;2023-06-14T11:31:38;2.30;;;1.70;;
18853;SDS011;9556;49.374;19.446;2023-06-14T11:34:10;4.18;;;2.70;;
18853;SDS011;9556;49.374;19.446;2023-06-14T11:36:39;2.20;;;1.80;;
18853;SDS011;9556;49.374;19.446;2023-06-14T11:39:08;3.33;;;1.75;;
18853;SDS011;9556;49.374;19.446;2023-06-14T11:41:36;3.75;;;2.50;;
18853;SDS011;9556;49.374;19.446;2023-06-14T11:44:04;4.65;;;3.00;;
18853;SDS011;9556;49.374;19.446;2023-06-14T11:46:31;3.50;;;2.55;;
18853;SDS011;9556;49.374;19.446;2023-06-14T11:48:58;6.70;;;4.53;;
18853;SDS011;9556;49.374;19.446;2023-06-14T11:51:28;4.50;;;2.80;;
18853;SDS011;9556;49.374;19.446;2023-06-14T11:53:55;2.33;;;2.00;;
18853;SDS011;9556;49.374;19.446;2023-06-14T11:56:24;1.73;;;1.50;;
18853;SDS011;9556;49.374;19.446;2023-06-14T11:58:52;2.08;;;1.67;;
18853;SDS011;9556;49.374;19.446;2023-06-14T12:01:21;3.35;;;1.65;;
18853;SDS011;9556;49.374;19.446;2023-06-14T12:03:49;2.50;;;1.80;;
18853;SDS011;9556;49.374;19.446;2023-06-14T12:06:16;2.78;;;1.83;;
18853;SDS011;9556;49.374;19.446;2023-06-14T12:08:55;2.22;;;1.80;;
18853;SDS011;9556;49.374;19.446;2023-06-14T12:11:22;4.90;;;2.25;;
18853;SDS011;9556;49.374;19.446;2023-06-14T12:13:50;4.15;;;2.88;;
18853;SDS011;9556;49.374;19.446;2023-06-14T12:16:18;3.33;;;2.08;;
18853;SDS011;9556;49.374;19.446;2023-06-14T12:18:45;2.92;;;2.30;;
18853;SDS011;9556;49.374;19.446;2023-06-14T12:21:12;3.33;;;2.40;;
18853;SDS011;9556;49.374;19.446;2023-06-14T12:23:43;3.63;;;2.60;;
18853;SDS011;9556;49.374;19.446;2023-06-14T12:26:12;3.83;;;2.50;;
18853;SDS011;9556;49.374;19.446;2023-06-14T12:28:39;2.70;;;2.20;;
18853;SDS011;9556;49.374;19.446;2023-06-14T12:31:09;2.83;;;2.08;;
18853;SDS011;9556;49.374;19.446;2023-06-14T12:33:36;3.75;;;2.35;;
18853;SDS011;9556;49.374;19.446;2023-06-14T12:36:04;3.28;;;2.47;;
18853;SDS011;9556;49.374;19.446;2023-06-14T12:38:32;3.92;;;2.28;;
18853;SDS011;9556;49.374;19.446;2023-06-14T12:40:59;2.55;;;2.00;;
18853;SDS011;9556;49.374;19.446;2023-06-14T12:43:26;2.35;;;1.70;;
18853;SDS011;9556;49.374;19.446;2023-06-14T12:45:53;2.40;;;1.70;;
18853;SDS011;9556;49.374;19.446;2023-06-14T12:48:22;1.85;;;1.70;;
18853;SDS011;9556;49.374;19.446;2023-06-14T12:50:49;1.73;;;1.58;;
18853;SDS011;9556;49.374;19.446;2023-06-14T12:53:16;4.03;;;2.03;;
18853;SDS011;9556;49.374;19.446;2023-06-14T12:55:43;2.95;;;1.73;;
18853;SDS011;9556;49.374;19.446;2023-06-14T12:58:11;3.35;;;1.73;;
18853;SDS011;9556;49.374;19.446;2023-06-14T13:00:39;2.67;;;1.77;;
18853;SDS011;9556;49.374;19.446;2023-06-14T13:03:06;2.03;;;1.60;;
18853;SDS011;9556;49.374;19.446;2023-06-14T13:05:34;3.55;;;2.67;;
18853;SDS011;9556;49.374;19.446;2023-06-14T13:08:02;5.82;;;4.05;;
18853;SDS011;9556;49.374;19.446;2023-06-14T13:10:29;7.32;;;5.00;;
18853;SDS011;9556;49.374;19.446;2023-06-14T13:12:56;6.47;;;3.80;;
18853;SDS011;9556;49.374;19.446;2023-06-14T13:15:25;3.75;;;2.90;;
18853;SDS011;9556;49.374;19.446;2023-06-14T13:17:52;3.22;;;2.25;;
18853;SDS011;9556;49.374;19.446;2023-06-14T13:20:20;2.80;;;2.10;;
18853;SDS011;9556;49.374;19.446;2023-06-14T13:22:48;2.38;;;2.15;;
18853;SDS011;9556;49.374;19.446;2023-06-14T13:25:16;2.92;;;2.47;;
18853;SDS011;9556;49.374;19.446;2023-06-14T13:27:43;3.13;;;2.67;;
18853;SDS011;9556;49.374;19.446;2023-06-14T13:30:10;3.08;;;2.17;;
18853;SDS011;9556;49.374;19.446;2023-06-14T13:32:38;2.25;;;1.88;;
18853;SDS011;9556;49.374;19.446;2023-06-14T13:35:05;2.20;;;1.80;;
18853;SDS011;9556;49.374;19.446;2023-06-14T13:37:32;2.38;;;1.80;;
18853;SDS011;9556;49.374;19.446;2023-06-14T13:40:01;2.30;;;1.70;;
18853;SDS011;9556;49.374;19.446;2023-06-14T13:42:28;1.92;;;1.40;;
18853;SDS011;9556;49.374;19.446;2023-06-14T13:44:57;1.92;;;1.50;;
18853;SDS011;9556;49.374;19.446;2023-06-14T13:47:24;1.80;;;1.60;;
18853;SDS011;9556;49.374;19.446;2023-06-14T13:49:52;1.67;;;1.42;;
18853;SDS011;9556;49.374;19.446;2023-06-14T13:52:19;2.72;;;1.70;;
18853;SDS011;9556;49.374;19.446;2023-06-14T13:54:46;2.15;;;1.60;;
18853;SDS011;9556;49.374;19.446;2023-06-14T13:57:14;2.00;;;1.48;;
18853;SDS011;9556;49.374;19.446;2023-06-14T13:59:42;2.70;;;2.00;;
18853;SDS011;9556;49.374;19.446;2023-06-14T14:02:10;3.22;;;1.80;;
18853;SDS011;9556;49.374;19.446;2023-06-14T14:04:38;2.10;;;1.60;;
18853;SDS011;9556;49.374;19.446;2023-06-14T14:07:05;4.78;;;1.73;;
18853;SDS011;9556;49.374;19.446;2023-06-14T14:09:32;2.28;;;1.67;;
18853;SDS011;9556;49.374;19.446;2023-06-14T14:11:59;2.30;;;1.77;;
18853;SDS011;9556;49.374;19.446;2023-06-14T14:14:29;2.60;;;2.15;;
18853;SDS011;9556;49.374;19.446;2023-06-14T14:16:57;2.40;;;1.70;;
18853;SDS011;9556;49.374;19.446;2023-06-14T14:19:24;2.33;;;1.60;;
18853;SDS011;9556;49.374;19.446;2023-06-14T14:21:51;3.47;;;1.60;;
18853;SDS011;9556;49.374;19.446;2023-06-14T14:24:19;2.08;;;1.73;;
18853;SDS011;9556;49.374;19.446;2023-06-14T14:26:46;5.13;;;3.50;;
18853;SDS011;9556;49.374;19.446;2023-06-14T14:29:15;4.80;;;2.97;;
18853;SDS011;9556;49.374;19.446;2023-06-14T14:31:43;5.18;;;3.22;;
18853;SDS011;9556;49.374;19.446;2023-06-14T14:34:11;8.20;;;2.05;;
18853;SDS011;9556;49.374;19.446;2023-06-14T14:36:38;2.58;;;1.92;;
18853;SDS011;9556;49.374;19.446;2023-06-14T14:39:07;4.22;;;1.70;;
18853;SDS011;9556;49.374;19.446;2023-06-14T14:41:34;2.58;;;1.90;;
18853;SDS011;9556;49.374;19.446;2023-06-14T14:44:02;2.70;;;1.50;;
18853;SDS011;9556;49.374;19.446;2023-06-14T14:46:30;3.00;;;1.67;;
18853;SDS011;9556;49.374;19.446;2023-06-14T14:48:59;6.78;;;2.00;;
18853;SDS011;9556;49.374;19.446;2023-06-14T14:51:26;4.60;;;2.00;;
18853;SDS011;9556;49.374;19.446;2023-06-14T14:53:54;3.67;;;1.65;;
18853;SDS011;9556;49.374;19.446;2023-06-14T14:56:21;5.25;;;1.60;;
18853;SDS011;9556;49.374;19.446;2023-06-14T14:58:49;2.28;;;1.50;;
18853;SDS011;9556;49.374;19.446;2023-06-14T15:01:16;3.75;;;1.42;;